sensor_id;sensor_type;location;lat;lon;timestamp;temperature;humidity
36800;DHT22;22752;51.960;5.886;2023-07-20T00:01:46;18.10;99.90
36800;DHT22;22752;51.960;5.886;2023-07-20T00:04:12;18.00;99.90
36800;DHT22;22752;51.960;5.886;2023-07-20T00:06:38;18.00;99.90
36800;DHT22;22752;51.960;5.886;2023-07-20T00:09:06;17.90;99.90
36800;DHT22;22752;51.960;5.886;2023-07-20T00:11:36;17.90;99.90
36800;DHT22;22752;51.960;5.886;2023-07-20T00:14:04;17.80;99.90
36800;DHT22;22752;51.960;5.886;2023-07-20T00:16:29;17.80;99.90
36800;DHT22;22752;51.960;5.886;2023-07-20T00:18:55;17.70;99.90
36800;DHT22;22752;51.960;5.886;2023-07-20T00:21:20;17.60;99.90
36800;DHT22;22752;51.960;5.886;2023-07-20T00:23:46;17.50;99.90
36800;DHT22;22752;51.960;5.886;2023-07-20T00:26:12;17.50;99.90
36800;DHT22;22752;51.960;5.886;2023-07-20T00:28:37;17.50;99.90
36800;DHT22;22752;51.960;5.886;2023-07-20T00:31:03;17.40;99.90
36800;DHT22;22752;51.960;5.886;2023-07-20T00:33:29;17.40;99.90
36800;DHT22;22752;51.960;5.886;2023-07-20T00:35:55;17.40;99.90
36800;DHT22;22752;51.960;5.886;2023-07-20T00:38:20;17.30;99.90
36800;DHT22;22752;51.960;5.886;2023-07-20T00:40:46;17.30;99.90
36800;DHT22;22752;51.960;5.886;2023-07-20T00:43:12;17.20;99.90
36800;DHT22;22752;51.960;5.886;2023-07-20T00:45:38;17.10;99.90
36800;DHT22;22752;51.960;5.886;2023-07-20T00:48:04;17.10;99.90
36800;DHT22;22752;51.960;5.886;2023-07-20T00:50:32;17.10;99.90
36800;DHT22;22752;51.960;5.886;2023-07-20T00:52:59;17.10;99.90
36800;DHT22;22752;51.960;5.886;2023-07-20T00:55:25;17.00;99.90
36800;DHT22;22752;51.960;5.886;2023-07-20T00:57:52;17.00;99.90
36800;DHT22;22752;51.960;5.886;2023-07-20T01:00:19;17.00;99.90
36800;DHT22;22752;51.960;5.886;2023-07-20T01:02:45;17.00;99.90
36800;DHT22;22752;51.960;5.886;2023-07-20T01:05:11;17.10;99.90
36800;DHT22;22752;51.960;5.886;2023-07-20T01:07:50;17.10;99.90
36800;DHT22;22752;51.960;5.886;2023-07-20T01:12:52;17.10;99.90
36800;DHT22;22752;51.960;5.886;2023-07-20T01:15:18;17.10;99.90
36800;DHT22;22752;51.960;5.886;2023-07-20T01:17:44;17.20;99.90
36800;DHT22;22752;51.960;5.886;2023-07-20T01:20:16;17.20;99.90
36800;DHT22;22752;51.960;5.886;2023-07-20T01:23:22;17.20;99.90
36800;DHT22;22752;51.960;5.886;2023-07-20T01:29:17;17.20;99.90
36800;DHT22;22752;51.960;5.886;2023-07-20T01:31:51;17.20;99.90
36800;DHT22;22752;51.960;5.886;2023-07-20T01:34:18;17.20;99.90
36800;DHT22;22752;51.960;5.886;2023-07-20T01:36:46;17.20;99.90
36800;DHT22;22752;51.960;5.886;2023-07-20T01:39:14;17.20;99.90
36800;DHT22;22752;51.960;5.886;2023-07-20T01:41:40;17.20;99.90
36800;DHT22;22752;51.960;5.886;2023-07-20T01:44:05;17.20;99.90
36800;DHT22;22752;51.960;5.886;2023-07-20T01:46:31;17.20;99.90
36800;DHT22;22752;51.960;5.886;2023-07-20T01:48:57;17.10;99.90
36800;DHT22;22752;51.960;5.886;2023-07-20T01:51:23;17.10;99.90
36800;DHT22;22752;51.960;5.886;2023-07-20T01:53:48;17.10;99.90
36800;DHT22;22752;51.960;5.886;2023-07-20T01:56:14;17.00;99.90
36800;DHT22;22752;51.960;5.886;2023-07-20T01:58:40;17.00;99.90
36800;DHT22;22752;51.960;5.886;2023-07-20T02:01:05;17.00;99.90
36800;DHT22;22752;51.960;5.886;2023-07-20T02:03:31;16.80;99.90
36800;DHT22;22752;51.960;5.886;2023-07-20T02:05:57;16.70;99.90
36800;DHT22;22752;51.960;5.886;2023-07-20T02:08:23;16.60;99.90
36800;DHT22;22752;51.960;5.886;2023-07-20T02:10:49;16.50;99.90
36800;DHT22;22752;51.960;5.886;2023-07-20T02:13:15;16.50;99.90
36800;DHT22;22752;51.960;5.886;2023-07-20T02:15:41;16.50;99.90
36800;DHT22;22752;51.960;5.886;2023-07-20T02:18:08;16.50;99.90
36800;DHT22;22752;51.960;5.886;2023-07-20T02:20:34;16.40;99.90
36800;DHT22;22752;51.960;5.886;2023-07-20T02:23:00;16.50;99.90
36800;DHT22;22752;51.960;5.886;2023-07-20T02:25:26;16.50;99.90
36800;DHT22;22752;51.960;5.886;2023-07-20T02:27:52;16.50;99.90
36800;DHT22;22752;51.960;5.886;2023-07-20T02:30:18;16.50;99.90
36800;DHT22;22752;51.960;5.886;2023-07-20T02:32:44;16.50;99.90
36800;DHT22;22752;51.960;5.886;2023-07-20T02:35:11;16.40;99.90
36800;DHT22;22752;51.960;5.886;2023-07-20T02:37:37;16.30;99.90
36800;DHT22;22752;51.960;5.886;2023-07-20T02:40:03;16.30;99.90
36800;DHT22;22752;51.960;5.886;2023-07-20T02:42:30;16.20;99.90
36800;DHT22;22752;51.960;5.886;2023-07-20T02:44:56;16.10;99.90
36800;DHT22;22752;51.960;5.886;2023-07-20T02:47:21;16.10;99.90
36800;DHT22;22752;51.960;5.886;2023-07-20T02:49:47;16.00;99.90
36800;DHT22;22752;51.960;5.886;2023-07-20T02:52:13;15.90;99.90
36800;DHT22;22752;51.960;5.886;2023-07-20T02:54:38;15.80;99.90
36800;DHT22;22752;51.960;5.886;2023-07-20T02:57:04;15.70;99.90
36800;DHT22;22752;51.960;5.886;2023-07-20T02:59:30;15.60;99.90
36800;DHT22;22752;51.960;5.886;2023-07-20T03:01:56;15.60;99.90
36800;DHT22;22752;51.960;5.886;2023-07-20T03:04:23;15.50;99.90
36800;DHT22;22752;51.960;5.886;2023-07-20T03:06:49;15.50;99.90
36800;DHT22;22752;51.960;5.886;2023-07-20T03:09:15;15.40;99.90
36800;DHT22;22752;51.960;5.886;2023-07-20T03:11:41;15.40;99.90
36800;DHT22;22752;51.960;5.886;2023-07-20T03:14:06;15.30;99.90
36800;DHT22;22752;51.960;5.886;2023-07-20T03:16:32;15.30;99.90
36800;DHT22;22752;51.960;5.886;2023-07-20T03:18:59;15.20;99.90
36800;DHT22;22752;51.960;5.886;2023-07-20T03:21:25;15.20;99.90
36800;DHT22;22752;51.960;5.886;2023-07-20T03:23:51;15.20;99.90
36800;DHT22;22752;51.960;5.886;2023-07-20T03:26:17;15.10;99.90
36800;DHT22;22752;51.960;5.886;2023-07-20T03:28:42;15.10;99.90
36800;DHT22;22752;51.960;5.886;2023-07-20T03:31:08;15.10;99.90
36800;DHT22;22752;51.960;5.886;2023-07-20T03:33:34;15.00;99.90
36800;DHT22;22752;51.960;5.886;2023-07-20T03:36:00;15.00;99.90
36800;DHT22;22752;51.960;5.886;2023-07-20T03:38:26;14.90;99.90
36800;DHT22;22752;51.960;5.886;2023-07-20T03:40:57;14.90;99.90
36800;DHT22;22752;51.960;5.886;2023-07-20T03:43:24;14.90;99.90
36800;DHT22;22752;51.960;5.886;2023-07-20T03:45:51;14.80;99.90
36800;DHT22;22752;51.960;5.886;2023-07-20T03:48:21;14.80;99.90
36800;DHT22;22752;51.960;5.886;2023-07-20T03:50:50;14.80;99.90
36800;DHT22;22752;51.960;5.886;2023-07-20T03:53:16;14.80;99.90
36800;DHT22;22752;51.960;5.886;2023-07-20T03:55:48;14.80;99.90
36800;DHT22;22752;51.960;5.886;2023-07-20T03:58:14;14.80;99.90
36800;DHT22;22752;51.960;5.886;2023-07-20T04:00:40;14.80;99.90
36800;DHT22;22752;51.960;5.886;2023-07-20T04:03:06;14.70;99.90
36800;DHT22;22752;51.960;5.886;2023-07-20T04:05:31;14.70;99.90
36800;DHT22;22752;51.960;5.886;2023-07-20T04:07:57;14.70;99.90
36800;DHT22;22752;51.960;5.886;2023-07-20T04:10:23;14.70;99.90
36800;DHT22;22752;51.960;5.886;2023-07-20T04:12:49;14.70;99.90
36800;DHT22;22752;51.960;5.886;2023-07-20T04:15:14;14.70;99.90
36800;DHT22;22752;51.960;5.886;2023-07-20T04:17:40;14.70;99.90
36800;DHT22;22752;51.960;5.886;2023-07-20T04:20:07;14.80;99.90
36800;DHT22;22752;51.960;5.886;2023-07-20T04:22:33;15.10;99.90
36800;DHT22;22752;51.960;5.886;2023-07-20T04:24:58;15.40;99.90
36800;DHT22;22752;51.960;5.886;2023-07-20T04:27:24;15.70;99.90
36800;DHT22;22752;51.960;5.886;2023-07-20T04:29:50;16.10;99.90
36800;DHT22;22752;51.960;5.886;2023-07-20T04:32:15;16.70;99.90
36800;DHT22;22752;51.960;5.886;2023-07-20T04:34:41;17.40;99.90
36800;DHT22;22752;51.960;5.886;2023-07-20T04:37:07;18.20;99.90
36800;DHT22;22752;51.960;5.886;2023-07-20T04:39:33;18.90;99.90
36800;DHT22;22752;51.960;5.886;2023-07-20T04:41:58;19.60;99.90
36800;DHT22;22752;51.960;5.886;2023-07-20T04:44:24;20.20;99.90
36800;DHT22;22752;51.960;5.886;2023-07-20T04:46:50;20.70;99.90
36800;DHT22;22752;51.960;5.886;2023-07-20T04:49:15;21.20;99.90
36800;DHT22;22752;51.960;5.886;2023-07-20T04:51:41;21.60;99.90
36800;DHT22;22752;51.960;5.886;2023-07-20T04:54:07;22.00;99.90
36800;DHT22;22752;51.960;5.886;2023-07-20T04:56:32;22.30;99.90
36800;DHT22;22752;51.960;5.886;2023-07-20T04:58:58;22.60;99.90
36800;DHT22;22752;51.960;5.886;2023-07-20T05:01:24;22.90;99.90
36800;DHT22;22752;51.960;5.886;2023-07-20T05:03:50;23.10;99.90
36800;DHT22;22752;51.960;5.886;2023-07-20T05:06:15;23.30;99.90
36800;DHT22;22752;51.960;5.886;2023-07-20T05:08:41;23.40;99.90
36800;DHT22;22752;51.960;5.886;2023-07-20T05:11:07;23.60;99.90
36800;DHT22;22752;51.960;5.886;2023-07-20T05:13:33;23.70;99.90
36800;DHT22;22752;51.960;5.886;2023-07-20T05:15:59;24.00;99.90
36800;DHT22;22752;51.960;5.886;2023-07-20T05:18:24;24.20;99.90
36800;DHT22;22752;51.960;5.886;2023-07-20T05:20:50;24.50;99.90
36800;DHT22;22752;51.960;5.886;2023-07-20T05:23:18;24.80;99.90
36800;DHT22;22752;51.960;5.886;2023-07-20T05:25:44;25.10;99.90
36800;DHT22;22752;51.960;5.886;2023-07-20T05:28:09;25.40;99.40
36800;DHT22;22752;51.960;5.886;2023-07-20T05:30:35;25.50;99.00
36800;DHT22;22752;51.960;5.886;2023-07-20T05:33:01;25.10;98.80
36800;DHT22;22752;51.960;5.886;2023-07-20T05:35:27;24.60;98.90
36800;DHT22;22752;51.960;5.886;2023-07-20T05:37:52;24.40;99.50
36800;DHT22;22752;51.960;5.886;2023-07-20T05:40:18;24.70;99.20
36800;DHT22;22752;51.960;5.886;2023-07-20T05:42:48;24.80;98.70
36800;DHT22;22752;51.960;5.886;2023-07-20T05:45:17;24.30;98.80
36800;DHT22;22752;51.960;5.886;2023-07-20T05:47:43;23.70;99.30
36800;DHT22;22752;51.960;5.886;2023-07-20T05:50:10;23.00;99.80
36800;DHT22;22752;51.960;5.886;2023-07-20T05:52:36;22.80;99.90
36800;DHT22;22752;51.960;5.886;2023-07-20T05:55:03;23.30;99.90
36800;DHT22;22752;51.960;5.886;2023-07-20T05:57:29;24.00;99.90
36800;DHT22;22752;51.960;5.886;2023-07-20T05:59:54;23.90;99.00
36800;DHT22;22752;51.960;5.886;2023-07-20T06:02:20;23.30;99.00
36800;DHT22;22752;51.960;5.886;2023-07-20T06:04:46;22.90;99.40
36800;DHT22;22752;51.960;5.886;2023-07-20T06:07:11;22.90;99.90
36800;DHT22;22752;51.960;5.886;2023-07-20T06:09:37;23.10;99.20
36800;DHT22;22752;51.960;5.886;2023-07-20T06:12:03;22.90;99.30
36800;DHT22;22752;51.960;5.886;2023-07-20T06:14:28;22.60;99.50
36800;DHT22;22752;51.960;5.886;2023-07-20T06:16:54;22.30;99.90
36800;DHT22;22752;51.960;5.886;2023-07-20T06:19:20;22.20;99.90
36800;DHT22;22752;51.960;5.886;2023-07-20T06:21:48;22.60;99.90
36800;DHT22;22752;51.960;5.886;2023-07-20T06:24:15;22.90;99.70
36800;DHT22;22752;51.960;5.886;2023-07-20T06:26:41;22.90;99.50
36800;DHT22;22752;51.960;5.886;2023-07-20T06:29:07;22.80;99.40
36800;DHT22;22752;51.960;5.886;2023-07-20T06:31:34;23.00;99.40
36800;DHT22;22752;51.960;5.886;2023-07-20T06:33:59;23.70;99.20
36800;DHT22;22752;51.960;5.886;2023-07-20T06:36:26;24.30;98.10
36800;DHT22;22752;51.960;5.886;2023-07-20T06:38:52;24.90;97.70
36800;DHT22;22752;51.960;5.886;2023-07-20T06:41:18;25.40;96.70
36800;DHT22;22752;51.960;5.886;2023-07-20T06:43:44;25.70;95.70
36800;DHT22;22752;51.960;5.886;2023-07-20T06:46:10;25.90;95.70
36800;DHT22;22752;51.960;5.886;2023-07-20T06:48:35;26.10;94.90
36800;DHT22;22752;51.960;5.886;2023-07-20T06:51:01;26.50;94.80
36800;DHT22;22752;51.960;5.886;2023-07-20T06:53:28;26.90;94.10
36800;DHT22;22752;51.960;5.886;2023-07-20T06:55:54;27.00;93.00
36800;DHT22;22752;51.960;5.886;2023-07-20T06:58:19;27.00;92.90
36800;DHT22;22752;51.960;5.886;2023-07-20T07:00:47;27.10;92.30
36800;DHT22;22752;51.960;5.886;2023-07-20T07:03:12;27.10;92.60
36800;DHT22;22752;51.960;5.886;2023-07-20T07:05:38;27.30;92.20
36800;DHT22;22752;51.960;5.886;2023-07-20T07:08:07;27.20;91.30
36800;DHT22;22752;51.960;5.886;2023-07-20T07:10:34;27.10;91.40
36800;DHT22;22752;51.960;5.886;2023-07-20T07:13:00;27.10;91.50
36800;DHT22;22752;51.960;5.886;2023-07-20T07:15:26;27.30;91.10
36800;DHT22;22752;51.960;5.886;2023-07-20T07:17:53;27.30;90.50
36800;DHT22;22752;51.960;5.886;2023-07-20T07:20:18;27.30;90.80
36800;DHT22;22752;51.960;5.886;2023-07-20T07:22:44;27.40;90.40
36800;DHT22;22752;51.960;5.886;2023-07-20T07:25:11;27.40;89.50
36800;DHT22;22752;51.960;5.886;2023-07-20T07:27:36;26.70;89.00
36800;DHT22;22752;51.960;5.886;2023-07-20T07:30:05;25.40;90.30
36800;DHT22;22752;51.960;5.886;2023-07-20T07:32:31;25.30;91.30
36800;DHT22;22752;51.960;5.886;2023-07-20T07:34:57;25.50;91.30
36800;DHT22;22752;51.960;5.886;2023-07-20T07:37:26;25.80;91.20
36800;DHT22;22752;51.960;5.886;2023-07-20T07:39:51;25.90;91.20
36800;DHT22;22752;51.960;5.886;2023-07-20T07:42:17;26.50;91.40
36800;DHT22;22752;51.960;5.886;2023-07-20T07:44:44;27.00;90.60
36800;DHT22;22752;51.960;5.886;2023-07-20T07:47:09;27.60;90.90
36800;DHT22;22752;51.960;5.886;2023-07-20T07:49:35;28.00;90.40
36800;DHT22;22752;51.960;5.886;2023-07-20T07:52:01;28.50;89.60
36800;DHT22;22752;51.960;5.886;2023-07-20T07:54:28;28.80;88.40
36800;DHT22;22752;51.960;5.886;2023-07-20T07:56:54;28.50;88.80
36800;DHT22;22752;51.960;5.886;2023-07-20T07:59:19;27.90;87.90
36800;DHT22;22752;51.960;5.886;2023-07-20T08:01:45;27.40;88.00
36800;DHT22;22752;51.960;5.886;2023-07-20T08:04:11;26.40;88.00
36800;DHT22;22752;51.960;5.886;2023-07-20T08:06:36;25.30;89.40
36800;DHT22;22752;51.960;5.886;2023-07-20T08:09:02;24.40;91.00
36800;DHT22;22752;51.960;5.886;2023-07-20T08:11:28;24.00;91.70
36800;DHT22;22752;51.960;5.886;2023-07-20T08:13:56;24.50;92.10
36800;DHT22;22752;51.960;5.886;2023-07-20T08:16:22;25.30;91.80
36800;DHT22;22752;51.960;5.886;2023-07-20T08:18:47;25.90;91.50
36800;DHT22;22752;51.960;5.886;2023-07-20T08:21:13;26.50;90.70
36800;DHT22;22752;51.960;5.886;2023-07-20T08:23:39;27.20;89.60
36800;DHT22;22752;51.960;5.886;2023-07-20T08:26:04;27.50;88.20
36800;DHT22;22752;51.960;5.886;2023-07-20T08:28:30;28.00;87.10
36800;DHT22;22752;51.960;5.886;2023-07-20T08:30:56;28.30;87.90
36800;DHT22;22752;51.960;5.886;2023-07-20T08:33:22;28.60;85.50
36800;DHT22;22752;51.960;5.886;2023-07-20T08:35:49;28.60;85.20
36800;DHT22;22752;51.960;5.886;2023-07-20T08:38:14;28.70;84.40
36800;DHT22;22752;51.960;5.886;2023-07-20T08:40:42;28.60;83.60
36800;DHT22;22752;51.960;5.886;2023-07-20T08:43:10;28.30;83.50
36800;DHT22;22752;51.960;5.886;2023-07-20T08:45:36;28.30;84.00
36800;DHT22;22752;51.960;5.886;2023-07-20T08:48:05;28.00;83.40
36800;DHT22;22752;51.960;5.886;2023-07-20T08:50:31;27.70;83.80
36800;DHT22;22752;51.960;5.886;2023-07-20T08:52:58;27.30;84.70
36800;DHT22;22752;51.960;5.886;2023-07-20T08:55:26;27.40;85.10
36800;DHT22;22752;51.960;5.886;2023-07-20T08:57:56;27.60;85.10
36800;DHT22;22752;51.960;5.886;2023-07-20T09:00:23;27.50;83.20
36800;DHT22;22752;51.960;5.886;2023-07-20T09:02:50;27.40;84.40
36800;DHT22;22752;51.960;5.886;2023-07-20T09:05:17;27.40;85.10
36800;DHT22;22752;51.960;5.886;2023-07-20T09:07:43;27.50;84.70
36800;DHT22;22752;51.960;5.886;2023-07-20T09:10:09;27.40;84.40
36800;DHT22;22752;51.960;5.886;2023-07-20T09:12:39;26.90;85.50
36800;DHT22;22752;51.960;5.886;2023-07-20T09:15:06;26.40;86.30
36800;DHT22;22752;51.960;5.886;2023-07-20T09:17:33;26.20;86.90
36800;DHT22;22752;51.960;5.886;2023-07-20T09:20:02;26.00;87.10
36800;DHT22;22752;51.960;5.886;2023-07-20T09:22:34;25.70;87.40
36800;DHT22;22752;51.960;5.886;2023-07-20T09:24:59;25.60;86.70
36800;DHT22;22752;51.960;5.886;2023-07-20T09:27:36;25.40;85.20
36800;DHT22;22752;51.960;5.886;2023-07-20T09:30:03;25.30;86.10
36800;DHT22;22752;51.960;5.886;2023-07-20T09:32:29;24.90;86.90
36800;DHT22;22752;51.960;5.886;2023-07-20T09:34:55;24.70;87.40
36800;DHT22;22752;51.960;5.886;2023-07-20T09:37:21;24.40;87.70
36800;DHT22;22752;51.960;5.886;2023-07-20T09:39:48;24.30;88.40
36800;DHT22;22752;51.960;5.886;2023-07-20T09:42:15;24.10;89.20
36800;DHT22;22752;51.960;5.886;2023-07-20T09:44:43;23.90;89.20
36800;DHT22;22752;51.960;5.886;2023-07-20T09:47:09;23.80;90.00
36800;DHT22;22752;51.960;5.886;2023-07-20T09:49:42;23.80;90.30
36800;DHT22;22752;51.960;5.886;2023-07-20T09:52:11;24.00;90.20
36800;DHT22;22752;51.960;5.886;2023-07-20T09:54:38;24.30;90.40
36800;DHT22;22752;51.960;5.886;2023-07-20T09:57:07;24.70;89.80
36800;DHT22;22752;51.960;5.886;2023-07-20T09:59:34;25.10;89.70
36800;DHT22;22752;51.960;5.886;2023-07-20T10:02:02;25.20;88.60
36800;DHT22;22752;51.960;5.886;2023-07-20T10:04:30;25.20;89.50
36800;DHT22;22752;51.960;5.886;2023-07-20T10:07:00;25.10;88.30
36800;DHT22;22752;51.960;5.886;2023-07-20T10:09:29;24.90;89.30
36800;DHT22;22752;51.960;5.886;2023-07-20T10:11:56;24.60;90.10
36800;DHT22;22752;51.960;5.886;2023-07-20T10:14:23;24.40;90.40
36800;DHT22;22752;51.960;5.886;2023-07-20T10:16:50;24.40;90.20
36800;DHT22;22752;51.960;5.886;2023-07-20T10:19:23;24.40;88.50
36800;DHT22;22752;51.960;5.886;2023-07-20T10:22:03;24.50;88.60
36800;DHT22;22752;51.960;5.886;2023-07-20T10:24:29;24.50;88.00
36800;DHT22;22752;51.960;5.886;2023-07-20T10:26:57;24.50;87.20
36800;DHT22;22752;51.960;5.886;2023-07-20T10:29:23;24.50;88.00
36800;DHT22;22752;51.960;5.886;2023-07-20T10:31:50;24.60;89.30
36800;DHT22;22752;51.960;5.886;2023-07-20T10:34:16;24.80;89.00
36800;DHT22;22752;51.960;5.886;2023-07-20T10:36:46;25.10;88.00
36800;DHT22;22752;51.960;5.886;2023-07-20T10:39:24;25.50;88.20
36800;DHT22;22752;51.960;5.886;2023-07-20T10:42:03;25.70;85.70
36800;DHT22;22752;51.960;5.886;2023-07-20T10:44:31;25.80;84.40
36800;DHT22;22752;51.960;5.886;2023-07-20T10:47:12;25.70;84.30
36800;DHT22;22752;51.960;5.886;2023-07-20T10:50:00;25.80;85.60
36800;DHT22;22752;51.960;5.886;2023-07-20T10:52:26;25.70;85.50
36800;DHT22;22752;51.960;5.886;2023-07-20T10:54:52;25.50;85.80
36800;DHT22;22752;51.960;5.886;2023-07-20T10:57:28;25.30;85.50
36800;DHT22;22752;51.960;5.886;2023-07-20T11:00:10;25.10;86.60
36800;DHT22;22752;51.960;5.886;2023-07-20T11:02:45;25.10;87.50
36800;DHT22;22752;51.960;5.886;2023-07-20T11:05:36;25.30;87.60
36800;DHT22;22752;51.960;5.886;2023-07-20T11:08:05;25.50;85.70
36800;DHT22;22752;51.960;5.886;2023-07-20T11:10:31;25.30;85.40
36800;DHT22;22752;51.960;5.886;2023-07-20T11:13:16;25.10;86.70
36800;DHT22;22752;51.960;5.886;2023-07-20T11:16:02;25.10;87.50
36800;DHT22;22752;51.960;5.886;2023-07-20T11:18:34;25.20;86.90
36800;DHT22;22752;51.960;5.886;2023-07-20T11:21:07;25.20;86.60
36800;DHT22;22752;51.960;5.886;2023-07-20T11:23:33;25.30;85.90
36800;DHT22;22752;51.960;5.886;2023-07-20T11:25:59;25.60;86.80
36800;DHT22;22752;51.960;5.886;2023-07-20T11:28:26;26.00;85.70
36800;DHT22;22752;51.960;5.886;2023-07-20T11:30:55;26.20;86.00
36800;DHT22;22752;51.960;5.886;2023-07-20T11:33:20;26.20;85.50
36800;DHT22;22752;51.960;5.886;2023-07-20T11:35:46;26.30;85.80
36800;DHT22;22752;51.960;5.886;2023-07-20T11:38:13;26.20;86.00
36800;DHT22;22752;51.960;5.886;2023-07-20T11:40:46;26.00;86.20
36800;DHT22;22752;51.960;5.886;2023-07-20T11:43:14;25.70;86.00
36800;DHT22;22752;51.960;5.886;2023-07-20T11:45:40;25.30;86.20
36800;DHT22;22752;51.960;5.886;2023-07-20T11:48:06;25.00;86.80
36800;DHT22;22752;51.960;5.886;2023-07-20T11:50:31;24.60;87.40
36800;DHT22;22752;51.960;5.886;2023-07-20T11:52:57;24.40;88.60
36800;DHT22;22752;51.960;5.886;2023-07-20T11:55:23;24.30;90.20
36800;DHT22;22752;51.960;5.886;2023-07-20T11:58:05;24.10;89.90
36800;DHT22;22752;51.960;5.886;2023-07-20T12:00:32;24.00;90.30
36800;DHT22;22752;51.960;5.886;2023-07-20T12:02:58;24.00;90.20
36800;DHT22;22752;51.960;5.886;2023-07-20T12:05:24;24.30;90.40
36800;DHT22;22752;51.960;5.886;2023-07-20T12:07:51;24.50;90.50
36800;DHT22;22752;51.960;5.886;2023-07-20T12:10:24;24.60;90.00
36800;DHT22;22752;51.960;5.886;2023-07-20T12:12:50;24.50;89.80
36800;DHT22;22752;51.960;5.886;2023-07-20T12:15:25;24.50;90.00
36800;DHT22;22752;51.960;5.886;2023-07-20T12:17:56;24.50;90.10
36800;DHT22;22752;51.960;5.886;2023-07-20T12:20:29;24.70;90.10
36800;DHT22;22752;51.960;5.886;2023-07-20T12:23:08;25.00;89.60
36800;DHT22;22752;51.960;5.886;2023-07-20T12:28:06;25.80;87.80
36800;DHT22;22752;51.960;5.886;2023-07-20T12:30:32;26.00;88.00
36800;DHT22;22752;51.960;5.886;2023-07-20T12:32:58;26.00;86.80
36800;DHT22;22752;51.960;5.886;2023-07-20T12:35:24;26.00;86.20
36800;DHT22;22752;51.960;5.886;2023-07-20T12:37:49;26.10;85.00
36800;DHT22;22752;51.960;5.886;2023-07-20T12:40:17;26.20;84.60
36800;DHT22;22752;51.960;5.886;2023-07-20T12:42:42;26.00;84.50
36800;DHT22;22752;51.960;5.886;2023-07-20T12:45:08;25.70;83.30
36800;DHT22;22752;51.960;5.886;2023-07-20T12:47:34;25.70;84.10
36800;DHT22;22752;51.960;5.886;2023-07-20T12:50:00;25.80;83.10
36800;DHT22;22752;51.960;5.886;2023-07-20T12:52:25;25.90;82.80
36800;DHT22;22752;51.960;5.886;2023-07-20T12:54:51;26.10;82.70
36800;DHT22;22752;51.960;5.886;2023-07-20T12:57:17;26.20;81.90
36800;DHT22;22752;51.960;5.886;2023-07-20T12:59:43;26.20;81.90
36800;DHT22;22752;51.960;5.886;2023-07-20T13:02:09;26.20;82.00
36800;DHT22;22752;51.960;5.886;2023-07-20T13:04:34;26.30;81.00
36800;DHT22;22752;51.960;5.886;2023-07-20T13:07:00;26.20;81.10
36800;DHT22;22752;51.960;5.886;2023-07-20T13:09:25;26.30;80.80
36800;DHT22;22752;51.960;5.886;2023-07-20T13:11:51;26.40;81.20
36800;DHT22;22752;51.960;5.886;2023-07-20T13:14:18;26.50;81.00
36800;DHT22;22752;51.960;5.886;2023-07-20T13:16:43;26.50;80.80
36800;DHT22;22752;51.960;5.886;2023-07-20T13:19:09;26.50;81.00
36800;DHT22;22752;51.960;5.886;2023-07-20T13:21:34;26.60;81.00
36800;DHT22;22752;51.960;5.886;2023-07-20T13:24:00;26.70;80.20
36800;DHT22;22752;51.960;5.886;2023-07-20T13:26:26;26.80;80.00
36800;DHT22;22752;51.960;5.886;2023-07-20T13:28:51;27.00;80.70
36800;DHT22;22752;51.960;5.886;2023-07-20T13:31:17;27.00;80.40
36800;DHT22;22752;51.960;5.886;2023-07-20T13:33:43;26.90;80.30
36800;DHT22;22752;51.960;5.886;2023-07-20T13:36:09;26.90;79.00
36800;DHT22;22752;51.960;5.886;2023-07-20T13:38:34;26.80;78.70
36800;DHT22;22752;51.960;5.886;2023-07-20T13:41:00;26.70;79.10
36800;DHT22;22752;51.960;5.886;2023-07-20T13:43:25;26.50;80.90
36800;DHT22;22752;51.960;5.886;2023-07-20T13:45:51;26.50;81.70
36800;DHT22;22752;51.960;5.886;2023-07-20T13:48:17;26.20;81.00
36800;DHT22;22752;51.960;5.886;2023-07-20T13:50:45;25.80;81.50
36800;DHT22;22752;51.960;5.886;2023-07-20T13:53:11;25.70;83.30
36800;DHT22;22752;51.960;5.886;2023-07-20T13:55:38;25.60;83.20
36800;DHT22;22752;51.960;5.886;2023-07-20T13:58:03;25.30;83.80
36800;DHT22;22752;51.960;5.886;2023-07-20T14:00:30;25.30;84.00
36800;DHT22;22752;51.960;5.886;2023-07-20T14:02:58;25.40;84.10
36800;DHT22;22752;51.960;5.886;2023-07-20T14:05:24;25.60;83.70
36800;DHT22;22752;51.960;5.886;2023-07-20T14:07:51;25.60;83.50
36800;DHT22;22752;51.960;5.886;2023-07-20T14:10:16;25.60;84.10
36800;DHT22;22752;51.960;5.886;2023-07-20T14:12:43;25.60;84.60
36800;DHT22;22752;51.960;5.886;2023-07-20T14:15:10;25.40;83.30
36800;DHT22;22752;51.960;5.886;2023-07-20T14:17:36;25.10;83.10
36800;DHT22;22752;51.960;5.886;2023-07-20T14:20:02;24.90;83.70
36800;DHT22;22752;51.960;5.886;2023-07-20T14:22:31;24.80;84.80
36800;DHT22;22752;51.960;5.886;2023-07-20T14:24:56;24.90;84.80
36800;DHT22;22752;51.960;5.886;2023-07-20T14:27:22;25.20;84.10
36800;DHT22;22752;51.960;5.886;2023-07-20T14:29:48;25.30;83.80
36800;DHT22;22752;51.960;5.886;2023-07-20T14:32:13;25.40;82.90
36800;DHT22;22752;51.960;5.886;2023-07-20T14:34:39;25.50;83.90
36800;DHT22;22752;51.960;5.886;2023-07-20T14:37:06;25.70;84.00
36800;DHT22;22752;51.960;5.886;2023-07-20T14:39:32;26.00;83.40
36800;DHT22;22752;51.960;5.886;2023-07-20T14:41:58;26.20;82.60
36800;DHT22;22752;51.960;5.886;2023-07-20T14:44:24;26.10;83.10
36800;DHT22;22752;51.960;5.886;2023-07-20T14:46:50;26.10;81.90
36800;DHT22;22752;51.960;5.886;2023-07-20T14:49:16;26.00;82.40
36800;DHT22;22752;51.960;5.886;2023-07-20T14:51:42;25.80;82.50
36800;DHT22;22752;51.960;5.886;2023-07-20T14:54:12;25.80;82.70
36800;DHT22;22752;51.960;5.886;2023-07-20T14:56:38;25.60;82.50
36800;DHT22;22752;51.960;5.886;2023-07-20T14:59:04;25.40;82.50
36800;DHT22;22752;51.960;5.886;2023-07-20T15:01:31;25.30;82.50
36800;DHT22;22752;51.960;5.886;2023-07-20T15:03:57;25.20;83.60
36800;DHT22;22752;51.960;5.886;2023-07-20T15:06:23;25.20;84.00
36800;DHT22;22752;51.960;5.886;2023-07-20T15:08:49;25.10;84.00
36800;DHT22;22752;51.960;5.886;2023-07-20T15:11:14;25.10;84.40
36800;DHT22;22752;51.960;5.886;2023-07-20T15:13:40;25.00;83.40
36800;DHT22;22752;51.960;5.886;2023-07-20T15:16:08;24.80;83.20
36800;DHT22;22752;51.960;5.886;2023-07-20T15:18:35;24.70;83.60
36800;DHT22;22752;51.960;5.886;2023-07-20T15:21:01;24.60;83.70
36800;DHT22;22752;51.960;5.886;2023-07-20T15:23:26;24.70;83.50
36800;DHT22;22752;51.960;5.886;2023-07-20T15:25:52;24.60;83.40
36800;DHT22;22752;51.960;5.886;2023-07-20T15:28:17;24.50;83.00
36800;DHT22;22752;51.960;5.886;2023-07-20T15:30:43;24.40;82.80
36800;DHT22;22752;51.960;5.886;2023-07-20T15:33:09;24.40;83.90
36800;DHT22;22752;51.960;5.886;2023-07-20T15:35:34;24.20;83.40
36800;DHT22;22752;51.960;5.886;2023-07-20T15:38:00;24.20;83.70